Time;durP1;ratioP1;P1;durP2;ratioP2;P2;SDS_P1;SDS_P2;PMS_P1;PMS_P2;Temp;Humidity;BMP_temperature;BMP_pressure;BME280_temperature;BME280_humidity;BME280_pressure;Samples;Min_cycle;Max_cycle;Signal;HPM_P1;HPM_P2
2021/01/27 00:01:27;;;;;;;18.50;8.40;;;4.30;99.90;;;;;;5067126;28;20264;-72
2021/01/27 00:03:53;;;;;;;16.70;8.95;;;4.30;99.90;;;;;;5062844;28;20662;-71
2021/01/27 00:06:20;;;;;;;12.80;7.57;;;4.20;99.90;;;;;;5063951;28;20225;-71
2021/01/27 00:08:46;;;;;;;16.15;8.55;;;4.20;99.90;;;;;;5065668;28;20195;-72
2021/01/27 00:11:12;;;;;;;19.00;8.60;;;4.20;99.90;;;;;;5066003;28;20194;-73
2021/01/27 00:13:39;;;;;;;16.80;8.48;;;4.20;99.90;;;;;;5066461;28;20194;-73
2021/01/27 00:16:06;;;;;;;18.00;8.48;;;4.20;99.90;;;;;;5068596;28;20572;-72
2021/01/27 00:18:32;;;;;;;14.82;8.70;;;4.10;99.90;;;;;;5069431;28;20305;-72
2021/01/27 00:20:58;;;;;;;16.55;8.10;;;4.10;99.90;;;;;;5070188;28;20202;-72
2021/01/27 00:23:25;;;;;;;14.70;8.40;;;4.10;99.90;;;;;;5067836;28;20198;-72
2021/01/27 00:25:51;;;;;;;15.05;8.32;;;4.00;99.90;;;;;;5068058;28;20195;-74
2021/01/27 00:28:18;;;;;;;16.38;8.93;;;4.10;99.90;;;;;;5064936;28;20225;-73
2021/01/27 00:30:45;;;;;;;20.00;9.20;;;4.00;99.90;;;;;;5068000;28;20211;-73
2021/01/27 00:33:14;;;;;;;18.55;9.40;;;4.10;99.90;;;;;;5068243;28;20268;-72
2021/01/27 00:35:42;;;;;;;17.15;9.35;;;4.00;99.90;;;;;;5068568;28;20241;-72
2021/01/27 00:38:12;;;;;;;19.27;9.73;;;4.10;99.90;;;;;;5083608;28;20206;-74
2021/01/27 00:40:38;;;;;;;23.80;9.93;;;4.10;99.90;;;;;;5069801;28;20268;-73
2021/01/27 00:43:05;;;;;;;17.02;10.02;;;4.10;99.90;;;;;;5068431;28;20198;-72
2021/01/27 00:45:32;;;;;;;21.25;10.65;;;4.00;99.90;;;;;;5068497;28;20260;-72
2021/01/27 00:47:59;;;;;;;17.35;10.10;;;4.00;99.90;;;;;;5067887;28;20206;-73
2021/01/27 00:50:26;;;;;;;19.52;9.88;;;4.00;99.90;;;;;;5069211;28;20399;-71
2021/01/27 00:52:52;;;;;;;18.80;9.88;;;4.00;99.90;;;;;;5069651;28;20203;-72
2021/01/27 00:55:27;;;;;;;18.50;9.90;;;4.00;99.90;;;;;;5082149;28;20248;-73
2021/01/27 00:57:55;;;;;;;22.45;10.43;;;4.00;99.90;;;;;;5067949;28;20732;-73
2021/01/27 01:00:24;;;;;;;17.40;10.35;;;4.00;99.90;;;;;;5067851;28;20330;-73
2021/01/27 01:02:51;;;;;;;18.25;10.50;;;4.00;99.90;;;;;;5084008;28;20206;-75
2021/01/27 01:05:21;;;;;;;19.48;10.52;;;4.00;99.90;;;;;;5085295;28;20206;-73
2021/01/27 01:07:48;;;;;;;19.55;10.60;;;3.90;99.90;;;;;;5067558;28;20213;-72
2021/01/27 01:10:19;;;;;;;22.30;10.88;;;3.90;99.90;;;;;;5067348;28;20225;-72
2021/01/27 01:12:46;;;;;;;20.63;11.43;;;3.90;99.90;;;;;;5066209;28;20221;-71
2021/01/27 01:15:13;;;;;;;21.27;11.20;;;3.90;99.90;;;;;;5062419;28;20212;-72
2021/01/27 01:17:39;;;;;;;18.45;10.70;;;3.90;99.90;;;;;;5068457;28;20693;-73
2021/01/27 01:20:13;;;;;;;22.95;11.57;;;3.90;99.90;;;;;;5069365;28;20233;-72
2021/01/27 01:22:42;;;;;;;17.65;10.82;;;3.90;99.90;;;;;;5069148;28;20198;-72
2021/01/27 01:25:09;;;;;;;22.73;11.82;;;3.80;99.90;;;;;;5068695;28;20686;-72
2021/01/27 01:27:36;;;;;;;21.08;12.07;;;3.80;99.90;;;;;;5069313;28;20202;-72
2021/01/27 01:30:08;;;;;;;18.85;12.30;;;3.80;99.90;;;;;;5068122;28;20210;-72
2021/01/27 01:32:34;;;;;;;21.15;13.00;;;3.70;99.90;;;;;;5066652;28;20222;-72
2021/01/27 01:35:00;;;;;;;23.60;12.55;;;3.70;99.90;;;;;;5064785;28;20205;-73
2021/01/27 01:37:27;;;;;;;23.52;12.90;;;3.70;99.90;;;;;;5067542;28;20245;-73
2021/01/27 01:39:54;;;;;;;20.38;11.40;;;3.70;99.90;;;;;;5067858;28;20631;-72
2021/01/27 01:42:20;;;;;;;18.40;11.35;;;3.70;99.90;;;;;;5068375;28;20206;-72
2021/01/27 01:44:46;;;;;;;19.77;12.18;;;3.70;99.90;;;;;;5068786;28;20658;-72
2021/01/27 01:47:13;;;;;;;20.38;12.05;;;3.70;99.90;;;;;;5066521;28;20222;-72
2021/01/27 03:53:50;;;;;;;16.45;10.60;;;3.50;99.90;;;;;;4798954;29;20214;-74
2021/01/27 03:56:25;;;;;;;12.82;9.60;;;3.50;99.90;;;;;;4862015;29;20227;-73
2021/01/27 03:58:51;;;;;;;13.73;9.93;;;3.50;99.90;;;;;;4900305;29;20570;-75
2021/01/27 04:01:19;;;;;;;12.68;9.82;;;3.40;99.90;;;;;;4943974;28;20213;-73
2021/01/27 04:03:46;;;;;;;14.38;10.13;;;3.40;99.90;;;;;;4986768;28;20622;-74
2021/01/27 04:06:13;;;;;;;15.90;10.75;;;3.40;99.90;;;;;;5014788;28;20207;-74
2021/01/27 04:08:39;;;;;;;14.23;10.38;;;3.40;99.90;;;;;;5048997;28;20688;-74
2021/01/27 04:11:07;;;;;;;16.95;10.63;;;3.40;99.90;;;;;;5054482;28;20678;-73
2021/01/27 04:13:35;;;;;;;12.82;10.07;;;3.40;99.90;;;;;;5057343;28;20206;-73
2021/01/27 04:16:02;;;;;;;13.90;9.82;;;3.40;99.90;;;;;;5042007;28;20203;-74
2021/01/27 04:18:29;;;;;;;13.15;10.27;;;3.40;99.90;;;;;;5044444;28;20199;-74
2021/01/27 04:20:55;;;;;;;15.02;10.75;;;3.30;99.90;;;;;;5040324;28;20686;-74
2021/01/27 04:23:22;;;;;;;15.43;10.88;;;3.30;99.90;;;;;;5043815;28;20272;-73
2021/01/27 04:25:49;;;;;;;14.38;10.50;;;3.30;99.90;;;;;;5040678;28;20221;-73
2021/01/27 04:28:16;;;;;;;16.88;11.40;;;3.30;99.90;;;;;;5038330;28;20564;-73
2021/01/27 04:30:43;;;;;;;15.48;11.07;;;3.30;99.90;;;;;;5036635;28;20209;-73
2021/01/27 04:33:12;;;;;;;15.50;10.88;;;3.30;99.90;;;;;;5057129;28;20869;-73
2021/01/27 04:35:39;;;;;;;16.98;10.63;;;3.30;99.90;;;;;;5059728;28;20206;-75
2021/01/27 04:38:06;;;;;;;14.95;11.75;;;3.30;99.90;;;;;;5067368;28;20203;-73
2021/01/27 04:40:35;;;;;;;14.98;11.00;;;3.30;99.90;;;;;;5064293;28;20206;-75
2021/01/27 04:43:03;;;;;;;15.10;10.45;;;3.30;99.90;;;;;;5063899;28;20881;-74
2021/01/27 04:45:29;;;;;;;14.70;11.20;;;3.30;99.90;;;;;;5073511;28;20216;-74
2021/01/27 04:48:00;;;;;;;14.55;11.25;;;3.30;99.90;;;;;;5068893;28;20260;-73
2021/01/27 04:50:32;;;;;;;13.35;10.60;;;3.30;99.90;;;;;;5064671;28;20209;-73
2021/01/27 04:53:24;;;;;;;14.48;11.13;;;3.30;99.90;;;;;;5063978;28;20201;-74
2021/01/27 04:56:11;;;;;;;13.40;10.90;;;3.30;99.90;;;;;;5080051;28;20218;-73
2021/01/27 04:58:44;;;;;;;15.00;11.35;;;3.30;99.90;;;;;;5064403;28;20205;-73
2021/01/27 05:01:30;;;;;;;15.65;11.18;;;3.30;99.90;;;;;;5067818;28;20198;-74
2021/01/27 05:04:21;;;;;;;14.80;10.82;;;3.30;99.90;;;;;;5066931;28;20252;-73
2021/01/27 05:06:50;;;;;;;15.43;10.57;;;3.30;99.90;;;;;;5066429;28;20210;-73
2021/01/27 05:09:30;;;;;;;18.30;10.77;;;3.30;99.90;;;;;;5065173;28;20203;-73
2021/01/27 05:12:01;;;;;;;15.20;11.45;;;3.30;99.90;;;;;;5067576;28;20206;-72
2021/01/27 05:14:27;;;;;;;14.05;10.75;;;3.30;99.90;;;;;;5065041;28;20209;-73
2021/01/27 05:16:54;;;;;;;13.15;10.00;;;3.30;99.90;;;;;;5068643;28;20221;-74
2021/01/27 05:19:21;;;;;;;20.25;11.55;;;3.30;99.90;;;;;;5062997;28;20202;-73
2021/01/27 05:21:51;;;;;;;12.88;10.50;;;3.30;99.90;;;;;;5061191;28;20217;-74
2021/01/27 05:24:18;;;;;;;13.90;10.32;;;3.30;99.90;;;;;;5059269;28;20218;-74
2021/01/27 05:26:50;;;;;;;14.27;10.98;;;3.30;99.90;;;;;;5065412;28;20221;-73
2021/01/27 05:29:21;;;;;;;15.43;11.82;;;3.30;99.90;;;;;;5067369;28;20209;-73
2021/01/27 05:32:07;;;;;;;14.88;11.50;;;3.30;99.90;;;;;;5067039;28;20218;-73
2021/01/27 05:34:37;;;;;;;18.58;11.73;;;3.30;99.90;;;;;;5061493;28;20249;-73
2021/01/27 05:37:06;;;;;;;16.83;11.40;;;3.30;99.90;;;;;;5065750;28;20202;-74
2021/01/27 05:39:33;;;;;;;14.63;11.05;;;3.30;99.90;;;;;;5065593;28;20576;-74
2021/01/27 05:42:28;;;;;;;17.13;11.85;;;3.30;99.90;;;;;;5065570;28;20800;-74
2021/01/27 05:44:57;;;;;;;15.02;11.23;;;3.30;99.90;;;;;;5065896;28;20560;-73
2021/01/27 05:47:35;;;;;;;14.98;11.32;;;3.30;99.90;;;;;;5065850;28;20194;-73
2021/01/27 05:50:23;;;;;;;15.98;12.30;;;3.30;99.90;;;;;;5061817;28;20201;-74
2021/01/27 05:52:50;;;;;;;16.45;12.05;;;3.30;99.90;;;;;;5063882;28;20229;-73
2021/01/27 05:55:17;;;;;;;16.58;11.15;;;3.30;99.90;;;;;;5062288;28;20651;-73
2021/01/27 05:57:57;;;;;;;15.07;11.43;;;3.30;99.90;;;;;;5063274;28;20659;-72
2021/01/27 06:00:26;;;;;;;17.80;11.65;;;3.30;99.90;;;;;;5060900;28;20198;-72
2021/01/27 06:02:54;;;;;;;17.38;12.23;;;3.30;99.90;;;;;;5062192;28;20230;-72
2021/01/27 06:05:33;;;;;;;18.83;12.88;;;3.30;99.90;;;;;;5064630;28;20218;-73
2021/01/27 06:08:12;;;;;;;17.40;11.95;;;3.30;99.90;;;;;;5066447;28;20217;-74
2021/01/27 06:10:40;;;;;;;17.40;12.40;;;3.30;99.90;;;;;;5059346;28;20666;-73
2021/01/27 06:13:16;;;;;;;16.95;12.48;;;3.30;99.90;;;;;;5058887;28;20294;-73
2021/01/27 06:15:43;;;;;;;17.88;12.10;;;3.30;99.90;;;;;;5067851;28;20198;-72
2021/01/27 06:18:20;;;;;;;16.17;12.18;;;3.30;99.90;;;;;;5068818;28;20285;-73
2021/01/27 06:20:48;;;;;;;17.95;12.98;;;3.30;99.90;;;;;;5069470;28;20600;-72
2021/01/27 06:23:58;;;;;;;17.48;12.98;;;3.30;99.90;;;;;;5068951;28;20214;-73
2021/01/27 06:26:48;;;;;;;16.45;11.65;;;3.30;99.90;;;;;;4986538;28;20208;-74
2021/01/27 06:29:34;;;;;;;18.13;13.18;;;3.30;99.90;;;;;;4984533;28;20213;-73
2021/01/27 06:32:21;;;;;;;22.40;13.50;;;3.30;99.90;;;;;;5047649;28;20264;-73
2021/01/27 06:35:02;;;;;;;17.75;13.68;;;3.30;99.90;;;;;;5066119;28;20210;-73
2021/01/27 06:37:45;;;;;;;19.73;12.98;;;3.40;99.90;;;;;;5067432;28;20213;-72
2021/01/27 06:40:36;;;;;;;18.98;13.63;;;3.40;99.90;;;;;;5067644;28;20190;-74
2021/01/27 06:43:36;;;;;;;17.15;12.57;;;3.40;99.90;;;;;;5065181;28;20552;-73
2021/01/27 06:46:31;;;;;;;19.08;13.55;;;3.40;99.90;;;;;;5060025;28;20210;-73
2021/01/27 06:49:19;;;;;;;19.55;14.48;;;3.40;99.90;;;;;;5064491;28;20196;-73
2021/01/27 06:52:03;;;;;;;20.00;14.27;;;3.40;99.90;;;;;;5068714;28;20206;-74
2021/01/27 06:54:48;;;;;;;22.20;15.25;;;3.40;99.90;;;;;;5068601;28;20201;-72
2021/01/27 06:57:20;;;;;;;25.00;16.02;;;3.50;99.90;;;;;;5063830;28;20202;-73
2021/01/27 07:00:16;;;;;;;21.17;14.70;;;3.50;99.90;;;;;;5048891;28;20631;-74
2021/01/27 07:03:30;;;;;;;23.08;15.57;;;3.50;99.90;;;;;;5068482;28;20203;-73
2021/01/27 07:06:29;;;;;;;23.23;16.42;;;3.50;99.90;;;;;;5067170;28;20571;-74
2021/01/27 07:09:12;;;;;;;23.02;16.77;;;3.50;99.90;;;;;;5066819;28;20279;-73
2021/01/27 07:11:50;;;;;;;26.98;17.45;;;3.50;99.90;;;;;;5068453;28;20341;-73
2021/01/27 07:14:44;;;;;;;23.75;15.88;;;3.50;99.90;;;;;;5068234;28;20537;-72
2021/01/27 07:17:41;;;;;;;24.48;17.75;;;3.50;99.90;;;;;;5069008;28;20885;-72
2021/01/27 07:20:23;;;;;;;25.17;17.67;;;3.60;99.90;;;;;;5068219;28;20212;-74
2021/01/27 07:22:56;;;;;;;24.65;17.10;;;3.60;99.90;;;;;;5067679;28;20213;-73
2021/01/27 07:25:44;;;;;;;26.83;18.98;;;3.60;99.90;;;;;;5068076;28;20205;-73
2021/01/27 07:28:17;;;;;;;25.45;17.65;;;3.60;99.90;;;;;;5048745;28;20213;-73
2021/01/27 07:30:52;;;;;;;27.50;19.13;;;3.60;99.90;;;;;;5048418;28;20605;-72
2021/01/27 07:33:24;;;;;;;29.40;19.40;;;3.60;99.90;;;;;;5067009;28;20218;-72
2021/01/27 07:36:03;;;;;;;32.25;21.08;;;3.60;99.90;;;;;;5060840;28;20198;-74
2021/01/27 07:38:34;;;;;;;35.17;21.17;;;3.60;99.90;;;;;;5063352;28;20213;-72
2021/01/27 07:41:05;;;;;;;31.52;21.48;;;3.60;99.90;;;;;;5064101;28;20217;-72
2021/01/27 07:43:37;;;;;;;33.75;21.27;;;3.70;99.90;;;;;;5065193;28;20211;-72
2021/01/27 07:46:03;;;;;;;30.77;20.67;;;3.70;99.90;;;;;;5062855;28;20221;-74
2021/01/27 07:48:37;;;;;;;34.35;22.23;;;3.60;99.90;;;;;;5068171;28;20194;-72
2021/01/27 07:51:11;;;;;;;34.13;22.23;;;3.70;99.90;;;;;;5058788;28;20202;-72
2021/01/27 07:53:41;;;;;;;31.70;21.08;;;3.60;99.90;;;;;;5066408;28;20198;-74
2021/01/27 07:56:13;;;;;;;34.80;22.80;;;3.70;99.90;;;;;;5068650;28;20661;-73
2021/01/27 07:58:46;;;;;;;35.80;23.50;;;3.70;99.90;;;;;;5065453;28;20282;-72
2021/01/27 08:01:17;;;;;;;37.85;24.05;;;3.70;99.90;;;;;;5067247;28;20237;-74
2021/01/27 08:03:54;;;;;;;36.95;24.05;;;3.70;99.90;;;;;;5069623;28;20218;-72
2021/01/27 08:06:23;;;;;;;37.38;24.55;;;3.70;99.90;;;;;;5071403;28;20204;-72
2021/01/27 08:08:52;;;;;;;39.65;25.55;;;3.80;99.90;;;;;;5052105;28;20209;-71
2021/01/27 08:11:30;;;;;;;39.20;24.50;;;3.80;99.90;;;;;;5051649;28;20286;-72
2021/01/27 08:13:57;;;;;;;39.58;24.80;;;3.80;99.90;;;;;;5069931;28;20195;-75
2021/01/27 08:16:33;;;;;;;40.72;25.73;;;3.80;99.90;;;;;;5067583;28;20203;-73
2021/01/27 08:19:24;;;;;;;39.90;24.67;;;3.80;99.90;;;;;;5063340;28;20226;-72
2021/01/27 08:22:05;;;;;;;37.22;23.15;;;3.90;99.90;;;;;;5041437;28;20232;-73
2021/01/27 08:24:51;;;;;;;40.67;24.75;;;3.90;99.90;;;;;;5067786;28;20257;-72
2021/01/27 08:27:27;;;;;;;42.50;25.30;;;3.90;99.90;;;;;;5059525;28;20209;-72
2021/01/27 08:30:28;;;;;;;38.38;23.48;;;3.90;99.90;;;;;;5063334;28;20234;-72
2021/01/27 08:33:36;;;;;;;41.80;23.40;;;4.00;99.90;;;;;;5063704;28;22120;-71
2021/01/27 08:36:05;;;;;;;36.60;21.20;;;4.00;99.90;;;;;;5029386;28;20218;-73
2021/01/27 08:38:34;;;;;;;34.35;21.20;;;4.10;99.90;;;;;;5065336;28;20217;-73
2021/01/27 08:41:06;;;;;;;37.97;21.50;;;4.10;99.90;;;;;;5068015;28;20234;-71
2021/01/27 08:43:39;;;;;;;34.90;21.67;;;4.10;99.90;;;;;;5066948;28;20217;-72
2021/01/27 08:46:26;;;;;;;34.60;21.23;;;4.20;99.90;;;;;;5065253;28;20285;-70
2021/01/27 08:48:54;;;;;;;31.15;18.65;;;4.20;99.90;;;;;;5065234;28;20294;-71
2021/01/27 08:51:40;;;;;;;32.53;19.02;;;4.30;99.90;;;;;;5063333;28;20206;-72
2021/01/27 08:54:55;;;;;;;30.77;18.30;;;4.30;99.90;;;;;;5064977;28;20206;-72
2021/01/27 08:57:24;;;;;;;25.80;16.80;;;4.30;99.90;;;;;;5069643;28;20205;-72
2021/01/27 09:00:07;;;;;;;32.28;18.20;;;4.40;99.90;;;;;;5064326;28;20568;-71
2021/01/27 09:02:50;;;;;;;37.13;17.35;;;4.40;99.90;;;;;;5059714;28;20228;-73
2021/01/27 09:05:39;;;;;;;31.20;18.15;;;4.50;99.90;;;;;;5061744;28;20317;-71
2021/01/27 09:08:26;;;;;;;31.13;17.55;;;4.50;99.90;;;;;;5062793;28;20721;-72
2021/01/27 09:10:56;;;;;;;32.70;18.80;;;4.60;99.90;;;;;;5062585;28;20234;-72
2021/01/27 09:13:24;;;;;;;41.10;19.70;;;4.60;99.90;;;;;;5066817;28;20199;-72
2021/01/27 09:15:53;;;;;;;36.00;20.27;;;4.60;99.90;;;;;;5063491;28;20241;-71
2021/01/27 09:18:21;;;;;;;41.83;19.33;;;4.70;99.90;;;;;;5066647;28;20297;-72
2021/01/27 09:20:48;;;;;;;50.75;20.15;;;4.80;99.90;;;;;;5056518;28;20214;-72
2021/01/27 09:23:18;;;;;;;56.25;21.27;;;4.80;99.90;;;;;;5058441;28;20214;-72
2021/01/27 09:25:46;;;;;;;46.15;17.95;;;4.90;99.90;;;;;;5058367;28;20663;-71
2021/01/27 09:28:12;;;;;;;38.63;16.40;;;5.00;99.90;;;;;;5062977;28;20199;-70
2021/01/27 09:30:39;;;;;;;32.08;12.13;;;5.10;99.90;;;;;;5059776;28;20688;-72
2021/01/27 09:33:10;;;;;;;35.20;11.88;;;5.20;99.90;;;;;;5061915;28;20306;-71
2021/01/27 09:35:38;;;;;;;38.22;10.55;;;5.40;99.90;;;;;;5057794;28;20198;-72
2021/01/27 09:38:08;;;;;;;35.67;12.50;;;5.50;99.90;;;;;;5067249;28;20209;-76
2021/01/27 09:40:38;;;;;;;38.42;11.80;;;5.60;99.90;;;;;;5067394;28;20211;-72
2021/01/27 09:43:07;;;;;;;29.60;10.65;;;5.60;99.90;;;;;;5063562;28;20259;-75
2021/01/27 09:45:35;;;;;;;33.60;12.35;;;5.70;99.90;;;;;;5065580;28;20516;-73
2021/01/27 09:48:04;;;;;;;33.65;11.15;;;5.80;99.90;;;;;;5066534;28;20230;-73
2021/01/27 09:50:32;;;;;;;34.75;12.60;;;5.90;99.90;;;;;;5066452;28;20310;-71
2021/01/27 09:53:02;;;;;;;44.45;12.15;;;5.90;99.90;;;;;;5065242;28;20195;-71
2021/01/27 09:55:30;;;;;;;31.23;10.77;;;6.00;99.90;;;;;;5068245;28;20213;-72
2021/01/27 09:57:56;;;;;;;36.28;10.30;;;6.00;99.90;;;;;;5064283;28;20207;-70
2021/01/27 10:00:28;;;;;;;26.33;9.10;;;6.10;99.90;;;;;;5064489;28;20631;-73
2021/01/27 10:02:55;;;;;;;25.15;8.65;;;6.10;99.90;;;;;;5065930;28;20211;-71
2021/01/27 10:05:36;;;;;;;17.98;7.50;;;6.20;99.90;;;;;;5064783;28;20778;-73
2021/01/27 10:08:12;;;;;;;27.17;7.38;;;6.20;99.90;;;;;;5065545;28;20198;-74
2021/01/27 10:10:38;;;;;;;21.58;5.93;;;6.20;99.90;;;;;;5061617;28;20209;-71
2021/01/27 10:13:05;;;;;;;16.75;4.75;;;6.20;99.90;;;;;;5066384;28;20262;-73
2021/01/27 10:15:34;;;;;;;25.65;7.03;;;6.30;99.90;;;;;;5079548;28;20203;-72
2021/01/27 10:18:06;;;;;;;15.70;5.57;;;6.30;99.90;;;;;;5065787;28;21013;-73
2021/01/27 10:20:35;;;;;;;25.27;6.15;;;6.30;99.90;;;;;;5065981;28;20202;-73
2021/01/27 10:23:05;;;;;;;17.30;5.72;;;6.30;99.90;;;;;;5066866;28;20206;-73
2021/01/27 10:25:38;;;;;;;29.98;6.28;;;6.30;99.90;;;;;;5064278;28;20242;-72
2021/01/27 10:28:20;;;;;;;26.02;6.82;;;6.40;99.90;;;;;;5066486;28;20201;-72
2021/01/27 10:30:59;;;;;;;21.52;7.18;;;6.40;99.90;;;;;;5065495;28;20202;-71
2021/01/27 10:33:39;;;;;;;24.52;7.68;;;6.40;99.90;;;;;;5063962;28;20241;-72
2021/01/27 10:36:34;;;;;;;22.23;8.13;;;6.50;99.90;;;;;;5065930;28;20559;-75
2021/01/27 10:39:15;;;;;;;31.13;8.70;;;6.50;99.90;;;;;;5059296;28;20689;-73
2021/01/27 10:41:42;;;;;;;25.85;9.45;;;6.50;99.90;;;;;;5066039;28;20284;-70
2021/01/27 10:44:30;;;;;;;31.15;9.57;;;6.60;99.90;;;;;;5067081;28;20215;-72
2021/01/27 10:47:10;;;;;;;31.98;9.77;;;6.60;99.90;;;;;;5064081;28;20201;-72
2021/01/27 10:49:38;;;;;;;31.25;9.85;;;6.60;99.90;;;;;;5065375;28;20198;-73
2021/01/27 10:52:06;;;;;;;26.42;10.45;;;6.60;99.90;;;;;;5067551;28;20203;-71
2021/01/27 10:54:34;;;;;;;27.42;10.32;;;6.70;99.90;;;;;;5065567;28;20201;-73
2021/01/27 10:57:00;;;;;;;25.70;9.52;;;6.70;99.90;;;;;;5065728;28;20233;-73
2021/01/27 10:59:28;;;;;;;21.20;9.68;;;6.70;99.90;;;;;;5066053;28;20203;-72
2021/01/27 11:01:54;;;;;;;41.25;11.98;;;6.80;99.90;;;;;;5065779;28;20194;-74
2021/01/27 11:04:21;;;;;;;30.05;10.50;;;6.80;99.90;;;;;;5067244;28;20222;-72
2021/01/27 11:06:47;;;;;;;30.08;11.13;;;6.80;99.90;;;;;;5066403;28;20615;-72
2021/01/27 11:09:14;;;;;;;25.48;10.13;;;6.80;99.90;;;;;;5063005;28;20202;-73
2021/01/27 11:11:41;;;;;;;30.02;10.27;;;6.80;99.90;;;;;;5065106;28;20697;-73
2021/01/27 11:14:08;;;;;;;22.48;9.77;;;6.90;99.90;;;;;;5062080;28;20195;-71
2021/01/27 11:16:35;;;;;;;26.77;9.48;;;6.90;99.90;;;;;;5066258;28;20210;-72
2021/01/27 11:19:02;;;;;;;29.73;10.00;;;6.90;99.90;;;;;;5064774;28;20651;-71
2021/01/27 11:21:28;;;;;;;23.60;9.50;;;6.90;99.90;;;;;;5067262;28;20214;-71
2021/01/27 11:23:55;;;;;;;21.17;9.57;;;6.90;99.90;;;;;;5063525;28;22713;-74
2021/01/27 11:26:21;;;;;;;25.15;10.05;;;6.90;99.90;;;;;;5071250;28;20236;-73
2021/01/27 11:28:50;;;;;;;23.80;9.05;;;6.90;99.90;;;;;;5069037;28;20207;-71
2021/01/27 11:31:17;;;;;;;33.85;9.43;;;7.00;99.90;;;;;;5068024;28;20199;-73
2021/01/27 11:33:45;;;;;;;21.25;7.80;;;7.00;99.90;;;;;;5066464;28;20247;-73
2021/01/27 11:36:11;;;;;;;21.13;8.98;;;7.00;99.90;;;;;;5069590;28;20667;-73
2021/01/27 11:38:38;;;;;;;32.47;8.93;;;7.00;99.90;;;;;;5069944;28;20661;-71
2021/01/27 11:41:04;;;;;;;19.95;6.72;;;7.00;99.90;;;;;;5067970;28;20214;-71
2021/01/27 11:43:31;;;;;;;21.25;7.30;;;7.00;99.90;;;;;;5068756;28;20194;-72
2021/01/27 11:45:58;;;;;;;25.40;7.82;;;7.00;99.90;;;;;;5068984;28;20226;-70
2021/01/27 11:48:24;;;;;;;25.70;7.00;;;7.00;99.90;;;;;;5065456;28;20272;-71
2021/01/27 11:50:51;;;;;;;28.48;8.75;;;7.00;99.90;;;;;;5070079;28;20209;-70
2021/01/27 11:53:17;;;;;;;21.38;8.45;;;7.10;99.90;;;;;;5067740;28;20256;-70
2021/01/27 11:55:44;;;;;;;26.08;8.65;;;7.10;99.90;;;;;;5069331;28;20624;-72
2021/01/27 11:58:10;;;;;;;17.48;8.00;;;7.10;99.90;;;;;;5064162;28;20208;-74
2021/01/27 12:00:37;;;;;;;21.25;8.50;;;7.10;99.90;;;;;;5066428;28;20194;-74
2021/01/27 12:03:04;;;;;;;27.20;9.40;;;7.10;99.90;;;;;;5068808;28;20210;-71
2021/01/27 12:05:31;;;;;;;27.45;8.70;;;7.10;99.90;;;;;;5068320;28;20233;-71
2021/01/27 12:07:57;;;;;;;22.55;8.38;;;7.10;99.90;;;;;;5066047;28;20252;-72
2021/01/27 12:10:24;;;;;;;25.30;10.35;;;7.20;99.90;;;;;;5066953;28;20215;-74
2021/01/27 12:12:51;;;;;;;30.08;11.95;;;7.20;99.90;;;;;;5070464;28;20633;-73
2021/01/27 12:15:18;;;;;;;31.83;12.35;;;7.20;99.90;;;;;;5068164;28;20203;-72
2021/01/27 12:17:44;;;;;;;24.13;12.60;;;7.20;99.90;;;;;;5068024;28;20213;-72
2021/01/27 12:20:13;;;;;;;31.50;12.18;;;7.20;99.90;;;;;;5067030;28;20190;-73
2021/01/27 12:22:40;;;;;;;27.42;12.35;;;7.30;99.90;;;;;;5070648;28;20206;-71
2021/01/27 12:25:07;;;;;;;37.17;14.10;;;7.30;99.90;;;;;;5068354;28;20232;-72
2021/01/27 12:27:34;;;;;;;39.15;13.57;;;7.40;99.90;;;;;;5067802;28;20717;-73
2021/01/27 12:30:00;;;;;;;27.35;12.02;;;7.50;99.90;;;;;;5067878;28;20210;-71
2021/01/27 12:32:26;;;;;;;27.27;13.52;;;7.60;99.90;;;;;;5069561;28;20198;-74
2021/01/27 12:34:53;;;;;;;27.63;12.32;;;7.60;99.90;;;;;;5068695;28;20213;-73
2021/01/27 12:37:20;;;;;;;28.13;11.88;;;7.60;99.90;;;;;;5067235;28;20616;-74
2021/01/27 12:39:47;;;;;;;25.52;11.60;;;7.70;99.90;;;;;;5067486;28;20277;-73
2021/01/27 12:42:14;;;;;;;22.45;11.63;;;7.70;99.90;;;;;;5069941;28;20544;-75
2021/01/27 12:44:41;;;;;;;29.73;10.82;;;7.70;99.90;;;;;;5062913;28;20326;-72
2021/01/27 12:47:08;;;;;;;28.92;9.73;;;7.80;99.90;;;;;;5064661;28;20283;-71
2021/01/27 12:49:34;;;;;;;25.88;10.65;;;7.80;99.90;;;;;;5067073;28;20209;-72
2021/01/27 12:52:01;;;;;;;25.02;9.63;;;7.80;99.90;;;;;;5067847;28;20207;-72
2021/01/27 12:54:28;;;;;;;22.60;9.00;;;7.80;99.90;;;;;;5067591;28;20198;-71
2021/01/27 12:56:54;;;;;;;22.17;8.95;;;7.90;99.90;;;;;;5068859;28;20202;-70
2021/01/27 12:59:21;;;;;;;27.92;9.07;;;7.90;99.90;;;;;;5068716;28;20343;-74
2021/01/27 13:01:47;;;;;;;19.10;8.07;;;7.90;99.90;;;;;;5067281;28;20215;-73
2021/01/27 13:04:14;;;;;;;20.10;8.60;;;7.90;99.90;;;;;;5068611;28;20218;-72
2021/01/27 13:06:41;;;;;;;22.00;7.97;;;7.90;99.90;;;;;;5067441;28;20201;-73
2021/01/27 13:09:07;;;;;;;19.60;9.18;;;7.90;99.90;;;;;;5069021;28;20679;-72
2021/01/27 13:11:34;;;;;;;25.45;9.73;;;7.90;99.90;;;;;;5069215;28;20202;-72
2021/01/27 13:14:01;;;;;;;20.63;8.90;;;7.80;99.90;;;;;;5068035;28;20197;-73
2021/01/27 13:16:27;;;;;;;22.58;9.20;;;7.90;99.90;;;;;;5069889;28;20691;-74
2021/01/27 13:18:54;;;;;;;27.38;9.48;;;7.90;99.90;;;;;;5066262;28;20577;-74
2021/01/27 13:21:21;;;;;;;28.63;9.18;;;7.90;99.90;;;;;;5069412;28;20693;-72
2021/01/27 13:23:48;;;;;;;33.47;9.50;;;7.90;99.90;;;;;;5065672;28;20280;-73
2021/01/27 13:26:15;;;;;;;28.35;9.30;;;7.90;99.90;;;;;;5070174;28;20987;-72
2021/01/27 13:28:43;;;;;;;27.35;9.93;;;7.90;99.90;;;;;;5063769;28;20256;-73
2021/01/27 13:31:10;;;;;;;27.70;10.50;;;7.90;99.90;;;;;;5066019;28;20675;-73
2021/01/27 13:33:36;;;;;;;27.10;11.48;;;7.90;99.90;;;;;;5065275;28;20632;-72
2021/01/27 13:36:03;;;;;;;27.92;12.07;;;7.80;99.90;;;;;;5066263;28;20252;-72
2021/01/27 13:38:29;;;;;;;34.60;13.43;;;7.80;99.90;;;;;;5061144;28;20206;-70
2021/01/27 13:40:55;;;;;;;33.67;12.77;;;7.80;99.90;;;;;;5064896;28;20214;-72
2021/01/27 13:43:22;;;;;;;32.17;13.75;;;7.80;99.90;;;;;;5066973;28;20626;-72
2021/01/27 13:45:49;;;;;;;35.88;13.18;;;7.80;99.90;;;;;;5068611;28;20214;-73
2021/01/27 13:48:15;;;;;;;35.90;12.95;;;7.80;99.90;;;;;;5066015;28;20206;-72
2021/01/27 13:50:42;;;;;;;41.03;13.13;;;7.80;99.90;;;;;;5064646;28;20206;-72
2021/01/27 13:53:08;;;;;;;28.10;13.20;;;7.80;99.90;;;;;;5063323;28;20729;-72
2021/01/27 13:55:35;;;;;;;29.55;13.02;;;7.80;99.90;;;;;;5065626;28;20195;-73
2021/01/27 13:58:01;;;;;;;23.02;10.30;;;7.80;99.90;;;;;;5066097;28;20198;-75
2021/01/27 14:00:27;;;;;;;24.95;10.60;;;7.80;99.90;;;;;;5060936;28;20207;-74
2021/01/27 14:02:54;;;;;;;21.30;9.82;;;7.80;99.90;;;;;;5066615;28;20202;-75
2021/01/27 14:05:23;;;;;;;26.75;10.73;;;7.80;99.90;;;;;;5061355;28;20801;-75
2021/01/27 14:07:52;;;;;;;24.23;10.60;;;7.80;99.90;;;;;;5064644;28;20563;-73
2021/01/27 14:10:20;;;;;;;33.25;10.43;;;7.80;99.90;;;;;;5061469;28;20203;-74
2021/01/27 14:12:46;;;;;;;23.73;9.45;;;7.80;99.90;;;;;;5068652;28;20195;-72
2021/01/27 14:15:13;;;;;;;24.98;9.88;;;7.80;99.90;;;;;;5064362;28;20199;-73
2021/01/27 14:17:40;;;;;;;28.23;10.27;;;7.80;99.90;;;;;;5066472;28;20214;-74
2021/01/27 14:20:11;;;;;;;25.83;10.73;;;7.80;99.90;;;;;;5063282;28;20202;-73
2021/01/27 14:22:37;;;;;;;21.90;10.73;;;7.80;99.90;;;;;;5063129;28;20246;-72
2021/01/27 14:25:04;;;;;;;28.05;12.07;;;7.80;99.90;;;;;;5066452;28;20590;-73
2021/01/27 14:27:31;;;;;;;26.65;11.68;;;7.80;99.90;;;;;;5065935;28;20198;-72
2021/01/27 14:29:57;;;;;;;32.75;12.48;;;7.80;99.90;;;;;;5064185;28;20221;-74
2021/01/27 14:32:24;;;;;;;32.90;12.63;;;7.80;99.90;;;;;;5062878;28;20202;-73
2021/01/27 14:34:50;;;;;;;29.98;12.98;;;7.80;99.90;;;;;;5064520;28;20654;-72
2021/01/27 14:37:17;;;;;;;35.45;14.10;;;7.80;99.90;;;;;;5057502;28;20629;-71
2021/01/27 14:39:46;;;;;;;36.85;13.38;;;7.80;99.90;;;;;;5059868;28;20692;-72
2021/01/27 14:42:12;;;;;;;28.48;12.23;;;7.80;99.90;;;;;;5063301;28;20570;-73
2021/01/27 14:44:39;;;;;;;37.50;13.20;;;7.70;99.90;;;;;;5057241;28;20218;-71
2021/01/27 14:47:05;;;;;;;32.30;13.52;;;7.70;99.90;;;;;;5055499;28;20620;-74
2021/01/27 14:49:32;;;;;;;27.08;12.52;;;7.70;99.90;;;;;;5056666;28;20996;-73
2021/01/27 14:51:59;;;;;;;35.35;13.27;;;7.80;99.90;;;;;;5058379;28;20301;-74
2021/01/27 14:54:26;;;;;;;33.83;14.10;;;7.70;99.90;;;;;;5059894;28;20209;-72
2021/01/27 14:56:53;;;;;;;33.75;13.98;;;7.70;99.90;;;;;;5062433;28;20202;-73
2021/01/27 14:59:19;;;;;;;33.05;12.75;;;7.70;99.90;;;;;;5058324;28;20200;-72
2021/01/27 15:01:46;;;;;;;27.27;12.02;;;7.70;99.90;;;;;;5055421;28;20506;-73
2021/01/27 15:04:12;;;;;;;27.27;11.98;;;7.70;99.90;;;;;;5052060;28;20741;-73
2021/01/27 15:06:38;;;;;;;33.50;12.93;;;7.70;99.90;;;;;;5055937;28;20273;-74